Time;durP1;ratioP1;P1;durP2;ratioP2;P2;SDS_P1;SDS_P2;PMS_P1;PMS_P2;Temp;Humidity;BMP_temperature;BMP_pressure;BME280_temperature;BME280_humidity;BME280_pressure;Samples;Min_cycle;Max_cycle;Signal;HPM_P1;HPM_P2
2022/09/28 00:00:49;;;;;;;;;;;;;;;17.35;46.98;99604.97;5016704;28;1190;-50
2022/09/28 00:03:14;;;;;;;;;;;;;;;17.20;46.49;99597.03;5017147;28;1112;-51
2022/09/28 00:05:40;;;;;;;;;;;;;;;17.20;45.87;99595.09;5017259;28;1124;-50
2022/09/28 00:08:05;;;;;;;;;;;;;;;17.14;45.51;99609.22;5016901;28;1207;-48
2022/09/28 00:10:31;;;;;;;;;;;;;;;17.21;45.12;99598.69;5017110;28;1196;-50
2022/09/28 00:12:59;;;;;;;;;;;;;;;18.32;46.88;99586.53;5016321;28;1100;-50
2022/09/28 00:15:24;;;;;;;;;;;;;;;17.57;47.88;99595.13;5016629;28;1985;-48
2022/09/28 00:17:50;;;;;;;;;;;;;;;17.26;47.10;99606.78;5017079;28;1109;-48
2022/09/28 00:20:16;;;;;;;;;;;;;;;17.31;46.40;99592.94;5017162;28;1207;-49
2022/09/28 00:22:42;;;;;;;;;;;;;;;17.78;47.63;99589.97;5016474;28;1172;-51
2022/09/28 00:25:07;;;;;;;;;;;;;;;17.36;47.44;99584.63;5016928;28;1180;-50
2022/09/28 00:27:33;;;;;;;;;;;;;;;17.38;46.95;99590.59;5016792;28;1181;-51
2022/09/28 00:29:58;;;;;;;;;;;;;;;17.92;47.63;99611.97;5016529;28;1104;-50
2022/09/28 00:32:25;;;;;;;;;;;;;;;17.52;47.42;99609.81;5016637;28;1164;-49
2022/09/28 00:34:51;;;;;;;;;;;;;;;17.34;46.63;99611.56;4999281;28;1374;-50
2022/09/28 00:37:17;;;;;;;;;;;;;;;17.20;46.44;99608.03;5016122;28;1898;-50
2022/09/28 00:39:43;;;;;;;;;;;;;;;17.10;45.83;99604.34;5016745;28;1215;-50
2022/09/28 00:42:19;;;;;;;;;;;;;;;17.09;45.49;99597.22;5016766;28;1164;-49
2022/09/28 00:44:54;;;;;;;;;;;;;;;16.99;45.52;99602.94;5016204;28;1129;-49
2022/09/28 00:47:26;;;;;;;;;;;;;;;16.96;45.19;99611.78;5016400;28;1069;-47
2022/09/28 00:49:53;;;;;;;;;;;;;;;17.89;46.55;99620.81;4998956;28;1544;-50
2022/09/28 00:52:21;;;;;;;;;;;;;;;17.38;47.18;99620.81;5020258;28;1096;-50
2022/09/28 00:54:46;;;;;;;;;;;;;;;17.20;46.80;99624.50;4983011;28;1192;-50
2022/09/28 00:57:12;;;;;;;;;;;;;;;18.15;47.21;99615.56;5012057;28;1910;-51
2022/09/28 00:59:38;;;;;;;;;;;;;;;17.53;47.92;99616.09;5002842;28;1093;-49
2022/09/28 01:02:03;;;;;;;;;;;;;;;17.41;46.98;99619.41;5002572;28;913;-48
2022/09/28 01:04:28;;;;;;;;;;;;;;;18.17;47.87;99629.00;5020198;28;1109;-48
2022/09/28 01:06:54;;;;;;;;;;;;;;;17.65;47.83;99632.88;5002598;28;1152;-48
2022/09/28 01:09:20;;;;;;;;;;;;;;;17.44;47.18;99633.31;5003096;28;1198;-50
2022/09/28 01:11:45;;;;;;;;;;;;;;;17.35;46.27;99639.84;5002784;28;1251;-50
2022/09/28 01:14:11;;;;;;;;;;;;;;;18.02;47.58;99633.75;5001627;28;893;-49
2022/09/28 01:16:39;;;;;;;;;;;;;;;17.66;47.82;99637.28;4986709;28;1983;-49
2022/09/28 01:19:40;;;;;;;;;;;;;;;17.46;46.77;99633.03;4988810;28;1243;-47
2022/09/28 01:22:11;;;;;;;;;;;;;;;17.24;46.30;99631.03;5020063;28;1081;-51
2022/09/28 01:24:55;;;;;;;;;;;;;;;17.58;46.91;99625.06;5002422;28;1339;-47
2022/09/28 01:27:34;;;;;;;;;;;;;;;17.61;47.60;99629.13;4990183;28;1077;-49
2022/09/28 01:30:00;;;;;;;;;;;;;;;17.42;46.81;99627.34;5019828;28;1136;-52
2022/09/28 01:32:38;;;;;;;;;;;;;;;17.19;46.33;99633.88;5002285;28;1226;-46
2022/09/28 01:35:06;;;;;;;;;;;;;;;17.92;47.09;99632.06;5001633;28;1855;-51
2022/09/28 01:37:43;;;;;;;;;;;;;;;17.38;47.32;99631.00;5019392;28;1918;-52
2022/09/28 01:40:09;;;;;;;;;;;;;;;17.27;46.73;99624.91;5002381;28;1215;-51
2022/09/28 01:42:35;;;;;;;;;;;;;;;17.31;46.81;99628.66;5002268;28;1088;-48
2022/09/28 01:45:03;;;;;;;;;;;;;;;17.75;47.56;99624.44;4985695;28;1216;-50
2022/09/28 01:47:29;;;;;;;;;;;;;;;17.37;47.31;99618.38;5002076;28;1151;-49
2022/09/28 01:50:02;;;;;;;;;;;;;;;17.24;46.46;99609.03;5002193;28;1112;-51
2022/09/28 01:52:28;;;;;;;;;;;;;;;18.02;47.05;99622.75;5002059;28;1147;-49
2022/09/28 01:54:56;;;;;;;;;;;;;;;17.73;47.50;99618.41;5001754;28;1402;-51
2022/09/28 01:57:25;;;;;;;;;;;;;;;17.47;46.88;99622.84;5002047;28;1984;-50
2022/09/28 01:59:53;;;;;;;;;;;;;;;17.25;46.58;99613.41;4985768;28;1608;-49
2022/09/28 02:02:21;;;;;;;;;;;;;;;17.14;46.00;99625.72;4985143;28;1305;-50
2022/09/28 02:04:53;;;;;;;;;;;;;;;17.07;45.74;99621.44;5001640;28;1187;-50
2022/09/28 02:07:19;;;;;;;;;;;;;;;17.67;46.57;99611.41;5001533;28;1340;-51
2022/09/28 02:09:49;;;;;;;;;;;;;;;17.51;47.22;99613.69;5001968;28;1227;-48
2022/09/28 02:12:16;;;;;;;;;;;;;;;17.93;47.72;99610.84;5019815;28;1207;-47
2022/09/28 02:14:42;;;;;;;;;;;;;;;16.40;53.56;99606.16;5001283;28;1195;-52
2022/09/28 02:17:08;;;;;;;;;;;;;;;16.36;52.06;99602.41;5001335;28;1910;-53
2022/09/28 02:19:33;;;;;;;;;;;;;;;16.89;48.63;99608.63;5019222;28;1226;-51
2022/09/28 02:22:22;;;;;;;;;;;;;;;17.76;49.50;99615.03;5001263;28;1187;-49
2022/09/28 02:24:50;;;;;;;;;;;;;;;17.40;48.95;99613.09;5001418;28;1223;-52
2022/09/28 02:27:30;;;;;;;;;;;;;;;17.26;47.94;99607.63;5000568;28;1487;-48
2022/09/28 02:29:56;;;;;;;;;;;;;;;17.14;46.83;99607.31;5001198;28;1187;-51
2022/09/28 02:32:21;;;;;;;;;;;;;;;18.00;47.72;99613.19;5000651;28;1179;-53
2022/09/28 02:34:46;;;;;;;;;;;;;;;17.36;47.94;99619.50;4983346;28;2164;-52
2022/09/28 02:37:12;;;;;;;;;;;;;;;17.21;47.17;99615.97;5017877;28;1989;-51
2022/09/28 02:39:37;;;;;;;;;;;;;;;17.67;47.75;99621.59;4999234;28;2106;-53
2022/09/28 02:42:12;;;;;;;;;;;;;;;17.58;47.88;99619.56;5000467;28;2057;-54
2022/09/28 02:44:41;;;;;;;;;;;;;;;17.28;47.46;99621.06;5000357;28;2080;-55
2022/09/28 02:47:06;;;;;;;;;;;;;;;18.09;47.40;99612.13;5000196;28;2121;-53
2022/09/28 02:49:37;;;;;;;;;;;;;;;17.50;47.79;99617.56;5000420;28;2205;-54
2022/09/28 02:52:29;;;;;;;;;;;;;;;17.28;47.27;99621.84;5000305;28;1120;-53
2022/09/28 02:54:55;;;;;;;;;;;;;;;17.19;46.59;99628.38;4971148;28;1287;-50
2022/09/28 02:57:23;;;;;;;;;;;;;;;18.10;47.32;99624.75;5000094;28;1914;-51
2022/09/28 02:59:55;;;;;;;;;;;;;;;17.73;47.85;99626.66;5000528;28;1312;-50
2022/09/28 03:02:21;;;;;;;;;;;;;;;17.43;47.19;99642.72;5000002;28;1355;-52
2022/09/28 03:05:02;;;;;;;;;;;;;;;17.31;46.60;99636.09;4999920;28;1124;-54
2022/09/28 03:07:38;;;;;;;;;;;;;;;17.26;45.74;99634.25;5000307;28;1270;-49
2022/09/28 03:10:03;;;;;;;;;;;;;;;17.12;45.72;99628.75;5000604;28;1195;-51
2022/09/28 03:12:30;;;;;;;;;;;;;;;17.64;47.41;99631.25;5000391;28;1320;-54
2022/09/28 03:15:25;;;;;;;;;;;;;;;17.22;47.18;99638.72;4999526;28;935;-51
2022/09/28 03:17:52;;;;;;;;;;;;;;;17.13;46.56;99626.84;4980037;28;1996;-53
2022/09/28 03:20:18;;;;;;;;;;;;;;;17.55;47.08;99642.16;5017393;28;1264;-52
2022/09/28 03:22:43;;;;;;;;;;;;;;;17.71;47.44;99633.59;5017354;28;1085;-52
2022/09/28 03:25:09;;;;;;;;;;;;;;;17.42;47.13;99629.28;4999616;28;1383;-50
2022/09/28 03:27:37;;;;;;;;;;;;;;;17.29;46.40;99641.88;4998725;28;1355;-52
2022/09/28 03:30:02;;;;;;;;;;;;;;;17.18;45.91;99640.47;4999417;28;1624;-48
2022/09/28 03:32:28;;;;;;;;;;;;;;;18.05;47.49;99655.13;4999370;28;1211;-50
2022/09/28 03:34:54;;;;;;;;;;;;;;;17.55;47.35;99642.16;4998760;28;1341;-50
2022/09/28 03:37:19;;;;;;;;;;;;;;;17.95;47.95;99652.63;5016917;28;1938;-53
2022/09/28 03:39:45;;;;;;;;;;;;;;;15.85;53.39;99636.09;4998785;28;1220;-51
2022/09/28 03:42:10;;;;;;;;;;;;;;;15.89;51.70;99654.44;4999643;28;1346;-53
2022/09/28 03:44:40;;;;;;;;;;;;;;;17.97;49.61;99647.63;4999676;28;1121;-50
2022/09/28 03:47:06;;;;;;;;;;;;;;;17.39;49.51;99638.94;4999668;28;1128;-51
2022/09/28 03:49:31;;;;;;;;;;;;;;;17.16;48.40;99646.25;5016329;28;2171;-49
2022/09/28 03:51:57;;;;;;;;;;;;;;;17.61;48.69;99651.13;4999319;28;1116;-51
2022/09/28 03:54:23;;;;;;;;;;;;;;;17.46;48.80;99649.53;4999402;28;1473;-54
2022/09/28 03:56:49;;;;;;;;;;;;;;;17.40;47.45;99648.00;4999386;28;1910;-57
2022/09/28 03:59:15;;;;;;;;;;;;;;;17.21;47.07;99654.41;4999179;28;1324;-50
2022/09/28 04:01:40;;;;;;;;;;;;;;;17.06;46.66;99658.28;5017095;28;1113;-51
2022/09/28 04:04:07;;;;;;;;;;;;;;;17.75;48.01;99643.69;4999191;28;1303;-48
2022/09/28 04:06:33;;;;;;;;;;;;;;;17.31;47.93;99652.59;4999104;28;1388;-54
2022/09/28 04:08:59;;;;;;;;;;;;;;;17.24;47.03;99653.00;4999067;28;1241;-52
2022/09/28 04:11:25;;;;;;;;;;;;;;;18.16;47.77;99643.88;4999229;28;1337;-53
2022/09/28 04:13:50;;;;;;;;;;;;;;;17.75;48.61;99646.44;4999232;28;1136;-51
2022/09/28 04:16:17;;;;;;;;;;;;;;;17.40;47.96;99646.06;4999025;28;1903;-53
2022/09/28 04:18:49;;;;;;;;;;;;;;;17.25;46.98;99638.94;4998880;28;2114;-53
2022/09/28 04:21:33;;;;;;;;;;;;;;;17.75;47.87;99640.94;5017346;28;1466;-62
2022/09/28 04:24:07;;;;;;;;;;;;;;;17.47;48.16;99639.34;4998848;28;1248;-62
2022/09/28 04:26:34;;;;;;;;;;;;;;;17.32;47.01;99643.22;4982941;28;1160;-62
2022/09/28 04:29:15;;;;;;;;;;;;;;;17.17;46.80;99647.91;5008648;28;1782;-60
2022/09/28 04:31:45;;;;;;;;;;;;;;;17.97;47.23;99658.63;5015439;28;1242;-62
2022/09/28 04:34:13;;;;;;;;;;;;;;;17.34;47.72;99652.78;5015006;28;1654;-60
2022/09/28 04:36:39;;;;;;;;;;;;;;;17.24;46.74;99659.28;5016509;28;1901;-62
2022/09/28 04:39:05;;;;;;;;;;;;;;;18.34;47.68;99667.66;5014850;28;1159;-62
2022/09/28 04:41:32;;;;;;;;;;;;;;;14.26;57.38;99658.59;5015409;28;1178;-64
2022/09/28 04:43:57;;;;;;;;;;;;;;;17.43;51.47;99664.69;5015606;28;1204;-62
2022/09/28 04:46:24;;;;;;;;;;;;;;;17.90;51.06;99666.44;5015630;28;1136;-56
2022/09/28 04:49:19;;;;;;;;;;;;;;;17.41;49.52;99661.41;4959178;28;1401;-56
2022/09/28 04:51:51;;;;;;;;;;;;;;;17.27;48.51;99671.63;5005085;28;1411;-55
2022/09/28 04:54:17;;;;;;;;;;;;;;;17.07;48.08;99676.38;5014114;28;1398;-55
2022/09/28 04:56:42;;;;;;;;;;;;;;;17.16;46.95;99675.69;5014318;28;1969;-54
2022/09/28 04:59:08;;;;;;;;;;;;;;;17.01;47.33;99688.59;5016276;28;1175;-54
2022/09/28 05:01:35;;;;;;;;;;;;;;;17.62;48.89;99680.25;5014777;28;1452;-54
2022/09/28 05:04:19;;;;;;;;;;;;;;;17.33;48.06;99684.13;5015982;28;841;-54
2022/09/28 05:07:14;;;;;;;;;;;;;;;17.16;47.31;99683.91;5003252;28;1393;-51
2022/09/28 05:09:39;;;;;;;;;;;;;;;17.12;46.62;99693.88;5016209;28;1226;-53
2022/09/28 05:12:05;;;;;;;;;;;;;;;17.02;46.58;99695.69;5014813;28;1244;-50
2022/09/28 05:14:30;;;;;;;;;;;;;;;16.99;45.88;99695.50;5016216;28;1477;-52
2022/09/28 05:16:56;;;;;;;;;;;;;;;17.79;47.17;99702.44;5014606;28;1960;-52
2022/09/28 05:19:24;;;;;;;;;;;;;;;17.27;47.57;99701.84;5015969;28;1199;-52
2022/09/28 05:21:51;;;;;;;;;;;;;;;17.17;47.09;99696.53;5014938;28;1263;-50
2022/09/28 05:24:16;;;;;;;;;;;;;;;17.15;46.78;99707.00;5015151;28;1156;-53
2022/09/28 05:26:47;;;;;;;;;;;;;;;17.25;47.33;99701.31;5014696;28;1219;-51
2022/09/28 05:29:13;;;;;;;;;;;;;;;17.20;47.55;99704.16;5006727;28;1470;-50
2022/09/28 05:31:50;;;;;;;;;;;;;;;17.48;48.50;99709.69;5014362;28;1096;-50
2022/09/28 05:34:34;;;;;;;;;;;;;;;17.28;47.86;99714.47;5014632;28;1260;-50
2022/09/28 05:37:00;;;;;;;;;;;;;;;17.20;47.00;99717.91;5008980;28;1968;-52
2022/09/28 05:39:25;;;;;;;;;;;;;;;18.20;45.89;99722.75;4993881;28;1317;-56
2022/09/28 05:41:51;;;;;;;;;;;;;;;17.93;46.74;99734.63;5017928;28;1121;-49
2022/09/28 05:44:16;;;;;;;;;;;;;;;17.58;47.97;99734.22;5018333;28;1493;-54
2022/09/28 05:46:42;;;;;;;;;;;;;;;17.15;49.55;99731.72;5018099;28;1330;-53
2022/09/28 05:49:09;;;;;;;;;;;;;;;16.69;50.82;99736.88;5018257;28;1715;-54
2022/09/28 05:51:35;;;;;;;;;;;;;;;16.31;51.90;99736.09;5018216;28;1179;-59
2022/09/28 05:54:01;;;;;;;;;;;;;;;16.80;51.32;99736.69;5020991;28;1147;-54
2022/09/28 05:56:28;;;;;;;;;;;;;;;17.87;49.08;99735.81;5015456;28;1977;-58
2022/09/28 05:58:54;;;;;;;;;;;;;;;16.87;51.29;99732.47;5014558;28;1299;-56
2022/09/28 06:01:22;;;;;;;;;;;;;;;16.26;53.28;99734.25;5014279;28;1442;-59
2022/09/28 06:03:47;;;;;;;;;;;;;;;17.64;51.23;99737.66;5017466;28;1249;-56
2022/09/28 06:06:13;;;;;;;;;;;;;;;18.17;49.93;99741.81;5015539;28;1489;-59
2022/09/28 06:08:42;;;;;;;;;;;;;;;17.41;51.63;99741.13;5011236;28;1589;-52
2022/09/28 06:11:31;;;;;;;;;;;;;;;16.82;54.43;99734.50;5007940;28;1068;-53
2022/09/28 06:13:58;;;;;;;;;;;;;;;17.95;51.32;99738.69;5016025;28;1144;-57
2022/09/28 06:16:27;;;;;;;;;;;;;;;18.16;50.74;99746.50;5017504;28;1910;-56
2022/09/28 06:18:53;;;;;;;;;;;;;;;16.77;54.17;99749.09;5016877;28;1298;-55
2022/09/28 06:21:34;;;;;;;;;;;;;;;17.61;52.46;99750.09;5017076;28;1132;-59
2022/09/28 06:24:00;;;;;;;;;;;;;;;18.29;50.70;99753.09;5016863;28;1137;-55
2022/09/28 06:26:26;;;;;;;;;;;;;;;17.52;52.41;99751.94;5016601;28;1175;-56
2022/09/28 06:28:52;;;;;;;;;;;;;;;16.66;55.19;99753.97;5015721;28;1282;-57
2022/09/28 06:31:22;;;;;;;;;;;;;;;17.86;52.24;99758.94;5000779;28;1606;-57
2022/09/28 06:33:51;;;;;;;;;;;;;;;18.40;50.79;99751.72;5016972;28;1244;-55
2022/09/28 06:36:16;;;;;;;;;;;;;;;17.06;53.75;99761.84;5017260;28;1906;-58
2022/09/28 06:38:42;;;;;;;;;;;;;;;16.68;55.44;99761.88;5018613;28;1068;-55
2022/09/28 06:41:08;;;;;;;;;;;;;;;17.86;52.66;99758.94;5016940;28;1353;-54
2022/09/28 06:43:34;;;;;;;;;;;;;;;18.37;51.15;99757.84;5017162;28;2308;-55
2022/09/28 06:46:12;;;;;;;;;;;;;;;17.28;53.86;99744.69;5006070;28;1045;-53
2022/09/28 06:48:57;;;;;;;;;;;;;;;16.83;55.63;99753.41;5016841;28;1146;-51
2022/09/28 06:51:45;;;;;;;;;;;;;;;18.04;52.50;99752.53;4987963;28;1243;-55
2022/09/28 06:54:18;;;;;;;;;;;;;;;18.50;51.00;99741.63;5017060;28;1247;-54
2022/09/28 06:57:16;;;;;;;;;;;;;;;16.87;54.66;99748.09;5014082;28;1902;-54
2022/09/28 06:59:42;;;;;;;;;;;;;;;17.03;55.53;99746.75;5015698;28;1281;-53
2022/09/28 07:02:09;;;;;;;;;;;;;;;18.04;52.84;99752.53;5015779;28;1412;-55
2022/09/28 07:05:05;;;;;;;;;;;;;;;18.34;51.67;99750.22;5012238;28;1123;-55
2022/09/28 07:07:49;;;;;;;;;;;;;;;16.76;55.22;99753.78;5017204;28;1203;-53
2022/09/28 07:10:41;;;;;;;;;;;;;;;17.57;54.04;99751.81;5000171;28;1194;-54
2022/09/28 07:13:36;;;;;;;;;;;;;;;18.36;52.07;99755.41;4964590;28;1439;-56
2022/09/28 07:16:06;;;;;;;;;;;;;;;17.85;52.86;99749.06;5016101;28;1980;-53
2022/09/28 07:18:31;;;;;;;;;;;;;;;16.66;55.28;99753.97;5003801;28;1382;-53
2022/09/28 07:20:57;;;;;;;;;;;;;;;17.43;54.95;99755.38;5016665;28;1367;-55
2022/09/28 07:23:26;;;;;;;;;;;;;;;18.20;52.61;99757.69;5016695;28;1332;-56
2022/09/28 07:26:24;;;;;;;;;;;;;;;18.04;52.75;99757.22;5015840;28;1168;-57
2022/09/28 07:29:10;;;;;;;;;;;;;;;16.66;55.87;99753.97;4984997;28;1260;-56
2022/09/28 07:31:58;;;;;;;;;;;;;;;17.86;53.89;99745.19;5016129;28;1155;-52
2022/09/28 07:34:55;;;;;;;;;;;;;;;18.47;52.08;99754.06;5001800;28;1398;-52
2022/09/28 07:37:31;;;;;;;;;;;;;;;17.02;55.21;99750.63;5003633;28;1963;-52
2022/09/28 07:42:41;;;;;;;;;;;;;;;18.06;53.63;99744.78;5001197;28;1223;-51
2022/09/28 07:45:08;;;;;;;;;;;;;;;18.51;52.38;99744.06;5009819;28;1270;-52
2022/09/28 07:47:34;;;;;;;;;;;;;;;17.06;55.29;99740.66;5015568;28;1304;-51
2022/09/28 07:50:35;;;;;;;;;;;;;;;17.34;56.07;99737.97;4976371;28;1304;-52
2022/09/28 07:53:19;;;;;;;;;;;;;;;18.26;53.39;99742.72;5004501;28;1289;-52
2022/09/28 07:56:08;;;;;;;;;;;;;;;17.75;54.00;99739.91;5015520;28;1938;-57
2022/09/28 07:58:45;;;;;;;;;;;;;;;16.64;56.00;99739.69;5017209;28;1116;-55
2022/09/28 08:01:37;;;;;;;;;;;;;;;17.64;55.21;99743.97;5001839;28;1307;-54
2022/09/28 08:04:02;;;;;;;;;;;;;;;18.26;53.44;99743.50;5015793;28;1230;-55
2022/09/28 08:06:28;;;;;;;;;;;;;;;18.03;53.70;99728.06;5016927;28;1490;-50
2022/09/28 08:08:55;;;;;;;;;;;;;;;16.95;55.99;99721.94;5018012;28;1230;-52
2022/09/28 08:11:26;;;;;;;;;;;;;;;17.11;57.37;99715.06;5008427;28;1228;-50
2022/09/28 08:14:02;;;;;;;;;;;;;;;18.16;54.83;99716.25;5018536;28;1530;-55
2022/09/28 08:16:46;;;;;;;;;;;;;;;17.41;56.50;99708.13;5011816;28;1975;-53
2022/09/28 08:19:20;;;;;;;;;;;;;;;16.65;57.82;99713.88;5012130;28;1536;-50
2022/09/28 08:21:51;;;;;;;;;;;;;;;16.48;58.54;99719.09;5011156;28;1375;-50
2022/09/28 08:24:17;;;;;;;;;;;;;;;17.47;58.62;99708.06;5014854;28;1103;-50
2022/09/28 08:26:44;;;;;;;;;;;;;;;18.17;56.27;99711.53;5014989;28;1200;-48
2022/09/28 08:29:13;;;;;;;;;;;;;;;17.22;57.71;99710.16;5011870;28;1438;-53
2022/09/28 08:31:47;;;;;;;;;;;;;;;16.48;57.55;99708.13;5005120;28;1236;-49
2022/09/28 08:34:42;;;;;;;;;;;;;;;17.26;59.24;99711.19;4983213;28;1212;-52
2022/09/28 08:37:40;;;;;;;;;;;;;;;18.13;56.23;99725.09;5001263;28;1991;-53
2022/09/28 08:40:24;;;;;;;;;;;;;;;17.52;57.29;99710.69;5015963;28;1179;-48
2022/09/28 08:43:19;;;;;;;;;;;;;;;16.56;57.84;99713.75;5003861;28;1084;-50
2022/09/28 08:46:08;;;;;;;;;;;;;;;16.91;59.91;99728.03;5001846;28;1373;-50
2022/09/28 08:49:09;;;;;;;;;;;;;;;17.58;57.79;99723.22;4923763;29;1090;-51
2022/09/28 08:52:11;;;;;;;;;;;;;;;17.01;58.35;99717.97;5007068;28;1141;-49
2022/09/28 08:54:59;;;;;;;;;;;;;;;16.80;57.92;99726.53;5002714;28;1017;-48
2022/09/28 08:57:38;;;;;;;;;;;;;;;16.68;57.36;99718.78;5000022;28;1922;-48
2022/09/28 09:00:04;;;;;;;;;;;;;;;16.63;57.56;99718.84;5015306;28;1057;-47
2022/09/28 09:02:34;;;;;;;;;;;;;;;16.63;57.05;99710.63;5015033;28;1372;-51
2022/09/28 09:05:15;;;;;;;;;;;;;;;16.57;57.06;99717.31;5000140;28;1192;-50
2022/09/28 09:08:06;;;;;;;;;;;;;;;16.54;57.06;99723.41;5001271;28;1270;-49
2022/09/28 09:10:50;;;;;;;;;;;;;;;16.49;56.85;99726.22;4995976;28;1327;-53
2022/09/28 09:13:37;;;;;;;;;;;;;;;16.44;56.75;99721.63;5029590;28;1284;-51
2022/09/28 09:16:07;;;;;;;;;;;;;;;16.49;56.84;99720.72;5011398;28;1910;-53
2022/09/28 09:19:04;;;;;;;;;;;;;;;16.42;56.75;99718.38;5018019;28;1258;-49
2022/09/28 09:21:40;;;;;;;;;;;;;;;16.38;56.70;99723.66;5002962;28;1131;-51
2022/09/28 09:24:11;;;;;;;;;;;;;;;16.39;56.62;99717.03;5017387;28;1288;-51
2022/09/28 09:26:38;;;;;;;;;;;;;;;16.35;56.78;99716.00;5002242;28;1073;-47
2022/09/28 09:29:12;;;;;;;;;;;;;;;16.29;56.99;99714.44;5017378;28;1151;-50
2022/09/28 09:32:03;;;;;;;;;;;;;;;16.28;56.56;99715.56;4989976;28;1285;-46
2022/09/28 09:34:48;;;;;;;;;;;;;;;16.30;56.49;99709.78;5018794;28;1238;-49
2022/09/28 09:37:52;;;;;;;;;;;;;;;16.26;56.47;99712.31;4978297;28;1965;-48
2022/09/28 09:40:58;;;;;;;;;;;;;;;16.23;56.70;99713.72;4947433;28;1345;-44
2022/09/28 09:43:49;;;;;;;;;;;;;;;16.22;56.54;99717.56;5010534;28;1280;-48
2022/09/28 09:47:00;;;;;;;;;;;;;;;16.21;56.80;99713.19;5004193;28;1120;-50
2022/09/28 09:50:00;;;;;;;;;;;;;;;16.19;56.65;99712.69;5016497;28;1139;-50
2022/09/28 09:52:46;;;;;;;;;;;;;;;16.85;56.77;99717.41;5018323;28;1168;-47
2022/09/28 09:55:23;;;;;;;;;;;;;;;17.37;56.97;99723.59;5017697;28;922;-50
2022/09/28 09:58:11;;;;;;;;;;;;;;;16.81;57.87;99716.38;5017851;28;1980;-47
2022/09/28 10:00:41;;;;;;;;;;;;;;;16.69;57.60;99714.09;5017723;28;1294;-46
2022/09/28 10:03:26;;;;;;;;;;;;;;;16.60;57.71;99719.47;5003530;28;1259;-49
2022/09/28 10:05:59;;;;;;;;;;;;;;;16.56;57.27;99715.69;5017938;28;1180;-50
2022/09/28 10:08:24;;;;;;;;;;;;;;;16.53;57.12;99710.78;5015093;28;1253;-47
2022/09/28 10:11:11;;;;;;;;;;;;;;;16.44;57.22;99716.16;5001295;28;1428;-52
2022/09/28 10:13:40;;;;;;;;;;;;;;;16.48;57.25;99724.59;5017231;28;1225;-52
2022/09/28 10:16:25;;;;;;;;;;;;;;;16.36;57.57;99716.81;5018212;28;1965;-53
2022/09/28 10:18:56;;;;;;;;;;;;;;;16.43;57.28;99718.06;5016872;28;2070;-51
2022/09/28 10:22:01;;;;;;;;;;;;;;;16.46;57.01;99721.34;5007065;28;1420;-46
2022/09/28 10:24:31;;;;;;;;;;;;;;;16.38;57.04;99728.31;4998165;28;1459;-53
2022/09/28 10:26:58;;;;;;;;;;;;;;;16.36;56.84;99722.31;5016939;28;1208;-49
2022/09/28 10:29:24;;;;;;;;;;;;;;;16.37;56.72;99718.47;5017198;28;1141;-55
2022/09/28 10:31:50;;;;;;;;;;;;;;;16.36;56.97;99720.38;4988821;28;1159;-52
2022/09/28 10:34:34;;;;;;;;;;;;;;;16.32;56.66;99724.81;4984653;28;1157;-52
2022/09/28 10:37:05;;;;;;;;;;;;;;;16.31;56.82;99714.94;4997676;28;2001;-44
2022/09/28 10:39:52;;;;;;;;;;;;;;;16.30;56.47;99716.09;5017267;28;1137;-50
2022/09/28 10:42:30;;;;;;;;;;;;;;;16.31;56.45;99714.16;5000866;28;1316;-50
2022/09/28 10:45:14;;;;;;;;;;;;;;;16.26;56.71;99706.81;5000183;28;1503;-49
2022/09/28 10:47:42;;;;;;;;;;;;;;;16.28;56.54;99703.78;5015743;28;1470;-48
2022/09/28 10:50:18;;;;;;;;;;;;;;;16.24;56.40;99703.53;5001118;28;1354;-48
2022/09/28 10:52:44;;;;;;;;;;;;;;;16.24;56.28;99698.06;5016243;28;1578;-49
2022/09/28 10:55:20;;;;;;;;;;;;;;;17.08;56.14;99705.47;5016577;28;1324;-53
2022/09/28 10:57:45;;;;;;;;;;;;;;;17.20;56.54;99702.22;5015444;28;1990;-47
2022/09/28 11:00:31;;;;;;;;;;;;;;;16.82;57.51;99696.06;5016316;28;1181;-47
2022/09/28 11:03:20;;;;;;;;;;;;;;;16.62;57.58;99709.00;5016656;28;1167;-48
2022/09/28 11:06:12;;;;;;;;;;;;;;;16.63;57.27;99704.31;5016855;28;1206;-53
2022/09/28 11:08:42;;;;;;;;;;;;;;;16.54;57.13;99699.50;5014051;28;1196;-50
2022/09/28 11:11:11;;;;;;;;;;;;;;;16.50;57.10;99692.19;4988803;28;1394;-51
2022/09/28 11:13:47;;;;;;;;;;;;;;;16.47;57.03;99690.84;4997697;28;1178;-46
2022/09/28 11:16:23;;;;;;;;;;;;;;;16.58;57.18;99686.03;4987537;28;1901;-52
2022/09/28 11:18:48;;;;;;;;;;;;;;;16.50;57.42;99689.44;5016516;28;1248;-48
2022/09/28 11:21:15;;;;;;;;;;;;;;;16.51;57.38;99691.06;5002570;28;1215;-50
2022/09/28 11:24:05;;;;;;;;;;;;;;;16.50;57.44;99683.97;5017753;28;1144;-52
2022/09/28 11:26:39;;;;;;;;;;;;;;;16.50;57.61;99673.78;5013110;28;1193;-51
2022/09/28 11:29:06;;;;;;;;;;;;;;;16.50;57.75;99689.44;5005305;28;1207;-49
2022/09/28 11:31:51;;;;;;;;;;;;;;;16.45;57.44;99676.59;4999448;28;1170;-48
2022/09/28 11:34:22;;;;;;;;;;;;;;;16.41;57.46;99692.88;5012661;28;1348;-51
2022/09/28 11:37:01;;;;;;;;;;;;;;;16.38;57.23;99693.47;4999047;28;1907;-49
2022/09/28 11:39:32;;;;;;;;;;;;;;;16.35;57.37;99683.06;5014981;28;1471;-50
2022/09/28 11:42:11;;;;;;;;;;;;;;;16.35;56.99;99683.06;4999025;28;1399;-45
2022/09/28 11:44:40;;;;;;;;;;;;;;;16.35;56.83;99677.56;5015234;28;1227;-46
2022/09/28 11:47:12;;;;;;;;;;;;;;;16.32;56.95;99688.34;5016757;28;1191;-47
2022/09/28 11:49:37;;;;;;;;;;;;;;;16.30;56.92;99669.44;5014722;28;1125;-51
2022/09/28 11:52:05;;;;;;;;;;;;;;;16.31;56.63;99673.00;5015214;28;1137;-51
2022/09/28 11:54:37;;;;;;;;;;;;;;;16.29;56.57;99661.53;5014887;28;1179;-49
2022/09/28 11:57:03;;;;;;;;;;;;;;;16.22;56.54;99662.69;5015236;28;1913;-49
2022/09/28 11:59:35;;;;;;;;;;;;;;;16.25;56.46;99666.78;5014962;28;1319;-51
2022/09/28 12:02:20;;;;;;;;;;;;;;;16.19;56.88;99662.50;5015326;28;1114;-48
2022/09/28 12:05:14;;;;;;;;;;;;;;;16.19;56.74;99674.28;4996409;28;1241;-48
2022/09/28 12:07:42;;;;;;;;;;;;;;;16.18;56.62;99660.84;5004037;28;1434;-47
2022/09/28 12:10:37;;;;;;;;;;;;;;;16.20;56.39;99666.84;5012312;28;1376;-49
2022/09/28 12:13:03;;;;;;;;;;;;;;;17.42;56.09;99681.50;5014628;28;1344;-51
2022/09/28 12:15:46;;;;;;;;;;;;;;;17.04;56.90;99663.25;5014799;28;1132;-50
2022/09/28 12:18:31;;;;;;;;;;;;;;;16.78;57.36;99676.59;5015705;28;1984;-50
2022/09/28 12:21:03;;;;;;;;;;;;;;;16.60;57.61;99678.28;5001270;28;1203;-52
2022/09/28 12:23:30;;;;;;;;;;;;;;;16.51;57.37;99671.84;5015890;28;1198;-48
2022/09/28 12:25:59;;;;;;;;;;;;;;;16.52;57.07;99670.75;5015724;28;1136;-48
2022/09/28 12:28:25;;;;;;;;;;;;;;;16.48;57.27;99669.72;4973318;28;1199693;-50
2022/09/28 12:30:50;;;;;;;;;;;;;;;16.41;57.15;99678.31;5016917;28;1167;-47
2022/09/28 12:33:16;;;;;;;;;;;;;;;16.52;57.01;99676.22;5016480;28;1159;-53
2022/09/28 12:35:44;;;;;;;;;;;;;;;16.39;57.26;99673.13;5016235;28;1127;-48
2022/09/28 12:38:24;;;;;;;;;;;;;;;16.35;56.96;99669.34;5016472;28;1989;-52
2022/09/28 12:40:53;;;;;;;;;;;;;;;16.35;56.96;99669.34;5014809;28;2693;-47
2022/09/28 12:43:27;;;;;;;;;;;;;;;16.29;56.80;99678.78;5015304;28;2140;-51
2022/09/28 12:46:00;;;;;;;;;;;;;;;16.28;56.97;99659.88;5013564;28;1857;-51
2022/09/28 12:48:44;;;;;;;;;;;;;;;16.23;56.80;99658.06;4997471;28;1811;-46
2022/09/28 12:51:21;;;;;;;;;;;;;;;16.22;56.80;99657.22;5016252;28;2170;-47
2022/09/28 12:54:00;;;;;;;;;;;;;;;16.19;56.91;99659.75;5010692;28;2144;-47
2022/09/28 12:56:29;;;;;;;;;;;;;;;17.26;56.34;99664.47;5013871;28;1898;-46
2022/09/28 12:58:59;;;;;;;;;;;;;;;17.19;56.71;99661.34;5015485;28;1497;-46
2022/09/28 13:01:36;;;;;;;;;;;;;;;16.77;57.47;99653.84;5015279;28;1096;-48
2022/09/28 13:04:01;;;;;;;;;;;;;;;16.66;57.59;99659.81;5015519;28;1258;-47
2022/09/28 13:06:45;;;;;;;;;;;;;;;16.56;57.67;99655.31;5016033;28;1369;-45
2022/09/28 13:09:21;;;;;;;;;;;;;;;16.51;57.17;99658.13;5016302;28;1107;-45
2022/09/28 13:12:05;;;;;;;;;;;;;;;16.41;57.21;99657.19;5015827;28;1115;-48
2022/09/28 13:14:50;;;;;;;;;;;;;;;16.39;56.94;99662.16;5016578;28;1120;-49
2022/09/28 13:17:21;;;;;;;;;;;;;;;16.35;57.12;99655.63;5004399;28;1965;-49
2022/09/28 13:19:51;;;;;;;;;;;;;;;16.31;57.11;99654.59;5014894;28;1139;-50
2022/09/28 13:22:24;;;;;;;;;;;;;;;16.29;56.85;99659.59;5014839;28;1100;-48
2022/09/28 13:24:50;;;;;;;;;;;;;;;16.29;57.03;99667.00;5014563;28;1850;-46
2022/09/28 13:27:18;;;;;;;;;;;;;;;16.25;56.64;99666.78;5014502;28;1192;-46
2022/09/28 13:29:43;;;;;;;;;;;;;;;16.19;57.00;99667.97;5014700;28;1228;-50
2022/09/28 13:32:10;;;;;;;;;;;;;;;16.73;56.79;99665.72;5014393;28;1164;-49